createdAt,value
2022-11-25T00:00:08.721Z,10.09
2022-11-25T00:01:08.709Z,10.10
2022-11-25T00:02:08.812Z,10.10
2022-11-25T00:03:08.764Z,10.09
2022-11-25T00:04:08.693Z,10.06
2022-11-25T00:05:08.656Z,10.07
2022-11-25T00:06:08.645Z,10.09
2022-11-25T00:07:08.705Z,10.07
2022-11-25T00:08:08.617Z,10.07
2022-11-25T00:09:08.604Z,10.07
2022-11-25T00:10:08.593Z,10.06
2022-11-25T00:11:08.580Z,10.04
2022-11-25T00:12:08.568Z,10.06
2022-11-25T00:13:08.552Z,10.04
2022-11-25T00:14:08.540Z,10.04
2022-11-25T00:15:08.528Z,10.04
2022-11-25T00:16:08.599Z,10.06
2022-11-25T00:17:08.584Z,10.06
2022-11-25T00:18:08.486Z,10.06
2022-11-25T00:19:08.473Z,10.06
2022-11-25T00:20:08.484Z,10.06
2022-11-25T00:21:08.445Z,10.07
2022-11-25T00:22:08.434Z,10.07
2022-11-25T00:23:08.420Z,10.06
2022-11-25T00:24:08.408Z,10.06
2022-11-25T00:25:08.393Z,10.07
2022-11-25T00:26:08.385Z,10.07
2022-11-25T00:27:08.368Z,10.06
2022-11-25T00:28:08.356Z,10.06
2022-11-25T00:29:08.340Z,10.06
2022-11-25T00:30:08.330Z,10.04
2022-11-25T00:31:08.317Z,10.06
2022-11-25T00:32:08.463Z,10.04
2022-11-25T00:33:08.290Z,10.04
2022-11-25T00:34:08.278Z,10.06
2022-11-25T00:35:08.263Z,10.04
2022-11-25T00:36:08.276Z,10.04
2022-11-25T00:37:08.236Z,10.04
2022-11-25T00:38:08.225Z,10.04
2022-11-25T00:39:08.219Z,10.04
2022-11-25T00:40:08.200Z,10.06
2022-11-25T00:41:08.185Z,10.06
2022-11-25T00:42:08.173Z,10.04
2022-11-25T00:43:08.158Z,10.04
2022-11-25T00:44:08.146Z,10.04
2022-11-25T00:45:08.132Z,10.06
2022-11-25T00:46:08.193Z,10.06
2022-11-25T00:47:08.107Z,10.04
2022-11-25T00:48:08.095Z,10.03
2022-11-25T00:49:08.079Z,10.03
2022-11-25T00:50:08.068Z,10.04
2022-11-25T00:51:08.058Z,10.06
2022-11-25T00:52:08.073Z,10.04
2022-11-25T00:53:08.028Z,10.04
2022-11-25T00:54:08.016Z,10.06
2022-11-25T00:55:08.002Z,10.04
2022-11-25T00:56:07.991Z,10.03
2022-11-25T00:57:07.976Z,10.06
2022-11-25T00:58:07.982Z,10.06
2022-11-25T00:59:07.977Z,10.04
2022-11-25T01:00:07.937Z,10.04
2022-11-25T01:01:07.974Z,10.03
2022-11-25T01:02:07.968Z,10.04
2022-11-25T01:03:07.898Z,10.03
2022-11-25T01:04:07.884Z,10.04
2022-11-25T01:05:07.872Z,10.04
2022-11-25T01:06:07.861Z,10.04
2022-11-25T01:07:07.843Z,10.04
2022-11-25T01:08:07.858Z,10.03
2022-11-25T01:09:07.816Z,10.04
2022-11-25T01:10:07.806Z,10.04
2022-11-25T01:11:07.792Z,10.04
2022-11-25T01:12:07.780Z,10.03
2022-11-25T01:13:07.766Z,10.04
2022-11-25T01:14:07.755Z,10.04
2022-11-25T01:15:07.739Z,10.03
2022-11-25T01:16:07.735Z,10.04
2022-11-25T01:17:07.717Z,10.04
2022-11-25T01:18:07.703Z,10.06
2022-11-25T01:19:07.688Z,10.03
2022-11-25T01:20:07.677Z,10.03
2022-11-25T01:21:07.663Z,10.03
2022-11-25T01:22:07.650Z,10.03
2022-11-25T01:23:07.635Z,10.01
2022-11-25T01:24:07.648Z,10.03
2022-11-25T01:25:07.612Z,10.03
2022-11-25T01:26:07.598Z,10.04
2022-11-25T01:27:07.584Z,10.03
2022-11-25T01:28:07.572Z,10.03
2022-11-25T01:29:07.564Z,10.03
2022-11-25T01:30:07.547Z,10.03
2022-11-25T01:31:07.531Z,10.01
2022-11-25T01:32:07.619Z,10.04
2022-11-25T01:33:07.509Z,10.04
2022-11-25T01:34:07.494Z,10.03
2022-11-25T01:35:07.480Z,10.03
2022-11-25T01:36:07.468Z,10.03
2022-11-25T01:37:07.455Z,10.01
2022-11-25T01:38:07.443Z,10.04
2022-11-25T01:39:07.428Z,10.01
2022-11-25T01:40:07.441Z,10.00
2022-11-25T01:41:07.404Z,10.01
2022-11-25T01:42:07.390Z,10.01
2022-11-25T01:43:07.376Z,10.01
2022-11-25T01:44:07.366Z,10.01
2022-11-25T01:45:07.352Z,10.01
2022-11-25T01:46:07.410Z,10.03
2022-11-25T01:47:07.322Z,10.03
2022-11-25T01:48:07.312Z,10.01
2022-11-25T01:49:07.298Z,10.00
2022-11-25T01:50:07.286Z,10.01
2022-11-25T01:51:07.272Z,10.03
2022-11-25T01:52:07.260Z,10.03
2022-11-25T01:53:07.245Z,10.01
2022-11-25T01:54:07.244Z,10.01
2022-11-25T01:55:07.232Z,10.00
2022-11-25T01:56:07.247Z,10.00
2022-11-25T01:57:07.197Z,10.01
2022-11-25T01:58:07.188Z,10.00
2022-11-25T01:59:07.175Z,10.00
2022-11-25T02:00:07.156Z,10.00
2022-11-25T02:01:07.180Z,10.00
2022-11-25T02:02:07.232Z,10.03
2022-11-25T02:03:07.114Z,10.00
2022-11-25T02:04:07.105Z,10.00
2022-11-25T02:05:07.088Z,9.99
2022-11-25T02:06:07.079Z,10.00
2022-11-25T02:07:07.062Z,9.99
2022-11-25T02:08:07.055Z,10.00
2022-11-25T02:09:07.035Z,9.99
2022-11-25T02:10:07.023Z,10.00
2022-11-25T02:11:07.010Z,10.00
2022-11-25T02:12:07.024Z,9.99
2022-11-25T02:13:06.983Z,10.01
2022-11-25T02:14:06.979Z,10.00
2022-11-25T02:15:06.956Z,10.00
2022-11-25T02:16:06.994Z,10.00
2022-11-25T02:17:06.930Z,10.00
2022-11-25T02:18:06.918Z,10.03
2022-11-25T02:19:06.907Z,10.01
2022-11-25T02:20:06.893Z,10.01
2022-11-25T02:21:06.879Z,9.99
2022-11-25T02:22:06.871Z,9.99
2022-11-25T02:23:06.859Z,10.00
2022-11-25T02:24:06.840Z,10.00
2022-11-25T02:25:06.827Z,10.00
2022-11-25T02:26:06.815Z,9.99
2022-11-25T02:27:06.800Z,10.00
2022-11-25T02:28:06.850Z,10.00
2022-11-25T02:29:06.774Z,10.00
2022-11-25T02:30:06.764Z,10.00
2022-11-25T02:31:06.751Z,9.99
2022-11-25T02:32:06.811Z,9.99
2022-11-25T02:33:06.721Z,10.00
2022-11-25T02:34:06.710Z,10.00
2022-11-25T02:35:06.695Z,9.99
2022-11-25T02:36:06.690Z,9.99
2022-11-25T02:37:06.670Z,9.99
2022-11-25T02:38:06.668Z,9.99
2022-11-25T02:39:06.645Z,9.99
2022-11-25T02:40:06.633Z,9.99
2022-11-25T02:41:06.618Z,9.99
2022-11-25T02:42:06.605Z,9.97
2022-11-25T02:43:06.593Z,9.99
2022-11-25T02:44:06.606Z,9.97
2022-11-25T02:45:06.565Z,9.99
2022-11-25T02:46:06.619Z,9.97
2022-11-25T02:47:06.537Z,9.99
2022-11-25T02:48:06.527Z,9.96
2022-11-25T02:49:09.340Z,9.99
2022-11-25T02:50:06.507Z,9.96
2022-11-25T02:51:06.487Z,9.99
2022-11-25T02:52:06.475Z,9.97
2022-11-25T02:53:06.460Z,9.97
2022-11-25T02:54:06.476Z,9.96
2022-11-25T02:55:06.436Z,9.97
2022-11-25T02:56:06.422Z,9.96
2022-11-25T02:57:06.407Z,9.96
2022-11-25T02:58:06.396Z,9.99
2022-11-25T02:59:06.381Z,9.97
2022-11-25T03:00:06.395Z,9.96
2022-11-25T03:01:06.394Z,9.96
2022-11-25T03:02:06.436Z,9.97
2022-11-25T03:03:06.330Z,9.96
2022-11-25T03:04:06.318Z,9.96
2022-11-25T03:05:06.304Z,9.96
2022-11-25T03:06:06.294Z,9.97
2022-11-25T03:07:06.278Z,9.99
2022-11-25T03:08:06.266Z,9.99
2022-11-25T03:09:06.251Z,9.97
2022-11-25T03:10:06.239Z,9.96
2022-11-25T03:11:06.228Z,9.96
2022-11-25T03:12:06.214Z,9.99
2022-11-25T03:13:06.201Z,9.97
2022-11-25T03:14:06.188Z,9.97
2022-11-25T03:15:06.173Z,9.97
2022-11-25T03:16:06.222Z,9.96
2022-11-25T03:17:06.147Z,9.97
2022-11-25T03:18:06.134Z,9.96
2022-11-25T03:19:06.119Z,9.96
2022-11-25T03:20:06.107Z,9.96
2022-11-25T03:21:06.093Z,9.94
2022-11-25T03:22:06.083Z,9.94
2022-11-25T03:23:06.068Z,9.96
2022-11-25T03:24:06.055Z,9.94
2022-11-25T03:25:06.040Z,9.96
2022-11-25T03:26:06.033Z,9.96
2022-11-25T03:27:06.026Z,9.94
2022-11-25T03:28:06.003Z,9.96
2022-11-25T03:29:05.988Z,9.96
2022-11-25T03:30:05.977Z,9.94
2022-11-25T03:31:05.963Z,9.94
2022-11-25T03:32:09.471Z,9.94
2022-11-25T03:33:05.937Z,9.94
2022-11-25T03:34:05.934Z,9.94
2022-11-25T03:35:05.910Z,9.94
2022-11-25T03:36:05.899Z,9.93
2022-11-25T03:37:05.953Z,9.94
2022-11-25T03:38:05.874Z,9.94
2022-11-25T03:39:05.859Z,9.97
2022-11-25T03:40:05.847Z,9.96
2022-11-25T03:41:05.834Z,9.94
2022-11-25T03:42:05.822Z,9.94
2022-11-25T03:43:05.807Z,9.94
2022-11-25T03:44:05.795Z,9.94
2022-11-25T03:45:05.782Z,9.94
2022-11-25T03:46:05.848Z,9.93
2022-11-25T03:47:05.756Z,9.94
2022-11-25T03:48:05.768Z,9.94
2022-11-25T03:49:05.730Z,9.94
2022-11-25T03:50:05.719Z,9.93
2022-11-25T03:51:05.703Z,9.91
2022-11-25T03:52:05.692Z,9.91
2022-11-25T03:53:05.677Z,9.93
2022-11-25T03:54:05.665Z,9.91
2022-11-25T03:55:05.650Z,9.91
2022-11-25T03:56:05.640Z,9.91
2022-11-25T03:57:05.624Z,9.93
2022-11-25T03:58:05.614Z,9.93
2022-11-25T03:59:05.600Z,9.91
2022-11-25T04:00:05.587Z,9.91
2022-11-25T04:01:05.649Z,9.91
2022-11-25T04:02:05.601Z,9.89
2022-11-25T04:03:05.546Z,9.93
2022-11-25T04:04:05.559Z,9.93
2022-11-25T04:05:05.581Z,9.89
2022-11-25T04:06:05.510Z,9.91
2022-11-25T04:07:05.496Z,9.91
2022-11-25T04:08:05.531Z,9.91
2022-11-25T04:09:05.469Z,9.93
2022-11-25T04:10:05.457Z,9.94
2022-11-25T04:11:05.442Z,9.93
2022-11-25T04:12:05.525Z,9.93
2022-11-25T04:13:05.416Z,9.93
2022-11-25T04:14:05.405Z,9.91
2022-11-25T04:15:05.394Z,9.91
2022-11-25T04:16:05.379Z,9.91
2022-11-25T04:17:05.432Z,9.91
2022-11-25T04:18:05.353Z,9.91
2022-11-25T04:19:05.340Z,9.94
2022-11-25T04:20:05.355Z,9.91
2022-11-25T04:21:05.319Z,9.89
2022-11-25T04:22:05.299Z,9.91
2022-11-25T04:23:05.288Z,9.91
2022-11-25T04:24:05.275Z,9.91
2022-11-25T04:25:05.262Z,9.89
2022-11-25T04:26:05.249Z,9.91
2022-11-25T04:27:05.235Z,9.91
2022-11-25T04:28:05.225Z,9.91
2022-11-25T04:29:05.209Z,9.89
2022-11-25T04:30:05.195Z,9.89
2022-11-25T04:31:05.285Z,9.86
2022-11-25T04:32:05.169Z,9.88
2022-11-25T04:33:05.158Z,9.89
2022-11-25T04:34:05.148Z,9.89
2022-11-25T04:35:05.131Z,9.88
2022-11-25T04:36:05.140Z,9.86
2022-11-25T04:37:05.107Z,9.88
2022-11-25T04:38:05.092Z,9.88
2022-11-25T04:39:05.084Z,9.88
2022-11-25T04:40:05.065Z,9.88
2022-11-25T04:41:05.054Z,9.89
2022-11-25T04:42:05.040Z,9.88
2022-11-25T04:43:10.392Z,9.88
2022-11-25T04:44:05.012Z,9.89
2022-11-25T04:45:22.472Z,9.88
2022-11-25T04:46:14.117Z,9.89
2022-11-25T04:47:06.090Z,9.88
2022-11-25T04:48:04.961Z,9.89
2022-11-25T04:49:04.953Z,9.89
2022-11-25T04:50:04.935Z,9.91
2022-11-25T04:51:04.923Z,9.89
2022-11-25T04:52:04.933Z,9.89
2022-11-25T04:53:04.897Z,9.89
2022-11-25T04:54:04.881Z,9.89
2022-11-25T04:55:04.871Z,9.91
2022-11-25T04:56:04.855Z,9.91
2022-11-25T04:57:04.843Z,9.88
2022-11-25T04:58:04.837Z,9.89
2022-11-25T04:59:04.818Z,9.91
2022-11-25T05:00:04.803Z,9.89
2022-11-25T05:01:04.904Z,9.89
2022-11-25T05:02:04.823Z,9.89
2022-11-25T05:03:04.765Z,9.89
2022-11-25T05:04:04.749Z,9.89
2022-11-25T05:05:04.736Z,9.89
2022-11-25T05:06:04.722Z,9.89
2022-11-25T05:07:04.711Z,9.89
2022-11-25T05:08:04.720Z,9.91
2022-11-25T05:09:04.695Z,9.91
2022-11-25T05:10:04.669Z,9.91
2022-11-25T05:11:04.659Z,9.91
2022-11-25T05:12:04.644Z,9.89
2022-11-25T05:13:04.633Z,9.89
2022-11-25T05:14:04.617Z,9.89
2022-11-25T05:15:04.607Z,9.89
2022-11-25T05:16:04.591Z,9.91
2022-11-25T05:17:04.691Z,9.89
2022-11-25T05:18:04.565Z,9.89
2022-11-25T05:19:04.552Z,9.89
2022-11-25T05:20:04.543Z,9.89
2022-11-25T05:21:04.528Z,9.91
2022-11-25T05:22:04.514Z,9.91
2022-11-25T05:23:04.502Z,9.89
2022-11-25T05:24:04.510Z,9.91
2022-11-25T05:25:04.475Z,9.89
2022-11-25T05:26:04.462Z,9.91
2022-11-25T05:27:04.446Z,9.91
2022-11-25T05:28:04.435Z,9.91
2022-11-25T05:29:04.423Z,9.93
2022-11-25T05:30:04.409Z,9.91
2022-11-25T05:31:04.463Z,9.91
2022-11-25T05:32:04.387Z,9.93
2022-11-25T05:33:04.372Z,9.91
2022-11-25T05:34:04.355Z,9.91
2022-11-25T05:35:04.349Z,9.89
2022-11-25T05:36:04.331Z,9.93
2022-11-25T05:37:04.320Z,9.91
2022-11-25T05:38:04.305Z,9.91
2022-11-25T05:39:04.290Z,9.93
2022-11-25T05:40:04.303Z,9.91
2022-11-25T05:41:04.265Z,9.93
2022-11-25T05:42:04.251Z,9.91
2022-11-25T05:43:04.240Z,9.91
2022-11-25T05:44:04.225Z,9.91
2022-11-25T05:45:04.213Z,9.93
2022-11-25T05:46:04.317Z,9.91
2022-11-25T05:47:04.188Z,9.91
2022-11-25T05:48:04.172Z,9.91
2022-11-25T05:49:04.160Z,9.91
2022-11-25T05:50:04.149Z,9.89
2022-11-25T05:51:04.135Z,9.91
2022-11-25T05:52:04.119Z,9.93
2022-11-25T05:53:04.119Z,9.91
2022-11-25T05:54:04.093Z,9.91
2022-11-25T05:55:04.083Z,9.89
2022-11-25T05:56:04.093Z,9.89
2022-11-25T05:57:04.059Z,9.91
2022-11-25T05:58:04.044Z,9.91
2022-11-25T05:59:04.030Z,9.89
2022-11-25T06:00:04.015Z,9.91
2022-11-25T06:01:04.006Z,9.89
2022-11-25T06:02:04.056Z,9.91
2022-11-25T06:03:04.119Z,9.91
2022-11-25T06:04:03.968Z,9.89
2022-11-25T06:05:03.953Z,9.89
2022-11-25T06:06:03.937Z,9.89
2022-11-25T06:07:03.926Z,9.91
2022-11-25T06:08:03.913Z,9.89
2022-11-25T06:09:03.902Z,9.91
2022-11-25T06:10:03.885Z,9.89
2022-11-25T06:11:03.873Z,9.89
2022-11-25T06:12:03.881Z,9.91
2022-11-25T06:13:03.848Z,9.93
2022-11-25T06:14:03.831Z,9.91
2022-11-25T06:15:03.821Z,9.93
2022-11-25T06:16:07.642Z,9.93
2022-11-25T06:17:03.797Z,9.91
2022-11-25T06:18:03.782Z,9.89
2022-11-25T06:19:03.769Z,9.89
2022-11-25T06:20:03.753Z,9.91
2022-11-25T06:21:03.743Z,9.89
2022-11-25T06:22:03.729Z,9.89
2022-11-25T06:23:03.720Z,9.88
2022-11-25T06:24:03.705Z,9.89
2022-11-25T06:25:04.266Z,9.89
2022-11-25T06:26:03.677Z,9.89
2022-11-25T06:27:03.665Z,9.89
2022-11-25T06:28:19.083Z,9.89
2022-11-25T06:29:04.680Z,9.91
2022-11-25T06:30:03.626Z,9.89
2022-11-25T06:31:03.658Z,9.91
2022-11-25T06:32:03.600Z,9.91
2022-11-25T06:33:03.587Z,9.91
2022-11-25T06:34:03.576Z,9.91
2022-11-25T06:35:03.563Z,9.93
2022-11-25T06:36:03.552Z,9.91
2022-11-25T06:37:03.540Z,9.91
2022-11-25T06:38:03.531Z,9.93
2022-11-25T06:39:03.511Z,9.91
2022-11-25T06:40:03.503Z,9.91
2022-11-25T06:41:03.487Z,9.91
2022-11-25T06:42:03.471Z,9.89
2022-11-25T06:43:03.457Z,9.88
2022-11-25T06:44:03.469Z,9.88
2022-11-25T06:45:03.431Z,9.89
2022-11-25T06:46:03.479Z,9.88
2022-11-25T06:47:03.410Z,9.89
2022-11-25T06:48:03.391Z,9.89
2022-11-25T06:49:03.381Z,9.91
2022-11-25T06:50:03.367Z,9.89
2022-11-25T06:51:03.354Z,9.91
2022-11-25T06:52:03.338Z,9.91
2022-11-25T06:53:03.334Z,9.91
2022-11-25T06:54:03.312Z,9.89
2022-11-25T06:55:03.302Z,9.93
2022-11-25T06:56:03.287Z,9.91
2022-11-25T06:57:03.277Z,9.93
2022-11-25T06:58:28.196Z,9.93
2022-11-25T06:59:04.290Z,9.91
2022-11-25T07:00:03.261Z,9.93
2022-11-25T07:01:03.226Z,9.91
2022-11-25T07:02:03.285Z,9.91
2022-11-25T07:03:03.237Z,9.93
2022-11-25T07:04:03.228Z,9.91
2022-11-25T07:05:03.171Z,9.93
2022-11-25T07:06:03.157Z,9.93
2022-11-25T07:07:03.148Z,9.91
2022-11-25T07:08:03.130Z,9.89
2022-11-25T07:09:03.121Z,9.93
2022-11-25T07:10:03.107Z,9.93
2022-11-25T07:11:03.093Z,9.91
2022-11-25T07:12:03.080Z,9.91
2022-11-25T07:13:03.068Z,9.91
2022-11-25T07:14:03.053Z,9.91
2022-11-25T07:15:03.047Z,9.91
2022-11-25T07:16:03.120Z,9.93
2022-11-25T07:17:07.416Z,9.93
2022-11-25T07:18:04.041Z,9.93
2022-11-25T07:19:02.990Z,9.91
2022-11-25T07:20:02.975Z,9.93
2022-11-25T07:21:02.963Z,9.91
2022-11-25T07:22:02.952Z,9.94
2022-11-25T07:23:02.944Z,9.96
2022-11-25T07:24:02.929Z,9.93
2022-11-25T07:25:02.911Z,9.94
2022-11-25T07:26:02.900Z,9.96
2022-11-25T07:27:02.887Z,9.94
2022-11-25T07:28:02.873Z,9.94
2022-11-25T07:29:02.859Z,9.94
2022-11-25T07:30:41.610Z,9.94
2022-11-25T07:31:34.449Z,9.94
2022-11-25T07:32:09.982Z,9.93
2022-11-25T07:33:03.942Z,9.93
2022-11-25T07:34:02.791Z,9.93
2022-11-25T07:35:02.780Z,9.94
2022-11-25T07:36:02.766Z,9.93
2022-11-25T07:37:02.760Z,9.94
2022-11-25T07:38:02.740Z,9.93
2022-11-25T07:39:02.729Z,9.94
2022-11-25T07:40:02.716Z,9.93
2022-11-25T07:41:02.702Z,9.91
2022-11-25T07:42:02.692Z,9.93
2022-11-25T07:43:02.677Z,9.93
2022-11-25T07:44:02.662Z,9.91
2022-11-25T07:45:02.649Z,9.93
2022-11-25T07:46:02.667Z,9.93
2022-11-25T07:47:08.654Z,9.93
2022-11-25T07:48:02.610Z,9.93
2022-11-25T07:49:02.605Z,9.94
2022-11-25T07:50:02.586Z,9.94
2022-11-25T07:51:02.577Z,9.94
2022-11-25T07:52:02.557Z,9.94
2022-11-25T07:53:02.549Z,9.93
2022-11-25T07:54:02.532Z,9.93
2022-11-25T07:55:02.521Z,9.94
2022-11-25T07:56:02.507Z,9.94
2022-11-25T07:57:02.500Z,9.94
2022-11-25T07:58:02.479Z,9.94
2022-11-25T07:59:02.468Z,9.93
2022-11-25T08:00:02.455Z,9.94
2022-11-25T08:01:02.441Z,9.94
2022-11-25T08:02:02.487Z,9.96
2022-11-25T08:03:02.553Z,9.94
2022-11-25T08:04:02.405Z,9.94
2022-11-25T08:05:02.392Z,9.94
2022-11-25T08:06:02.377Z,9.96
2022-11-25T08:07:02.369Z,9.97
2022-11-25T08:08:02.450Z,9.94
2022-11-25T08:09:02.341Z,9.94
2022-11-25T08:10:02.324Z,9.94
2022-11-25T08:11:02.314Z,9.96
2022-11-25T08:12:02.298Z,9.93
2022-11-25T08:13:02.287Z,9.93
2022-11-25T08:14:02.274Z,9.94
2022-11-25T08:15:02.267Z,9.93
2022-11-25T08:16:02.398Z,9.91
2022-11-25T08:17:02.235Z,9.93
2022-11-25T08:18:02.220Z,9.93
2022-11-25T08:19:02.233Z,9.91
2022-11-25T08:20:02.194Z,9.93
2022-11-25T08:21:02.186Z,9.93
2022-11-25T08:22:02.170Z,9.93
2022-11-25T08:23:02.156Z,9.93
2022-11-25T08:24:02.143Z,9.93
2022-11-25T08:25:02.134Z,9.91
2022-11-25T08:26:02.117Z,9.93
2022-11-25T08:27:02.108Z,9.93
2022-11-25T08:28:02.089Z,9.94
2022-11-25T08:29:02.078Z,9.93
2022-11-25T08:30:02.075Z,9.93
2022-11-25T08:31:02.112Z,9.93
2022-11-25T08:32:03.520Z,9.91
2022-11-25T08:33:02.026Z,9.93
2022-11-25T08:34:02.014Z,9.91
2022-11-25T08:35:02.024Z,9.94
2022-11-25T08:36:01.989Z,9.93
2022-11-25T08:37:01.975Z,9.94
2022-11-25T08:38:01.964Z,9.96
2022-11-25T08:39:01.947Z,9.93
2022-11-25T08:40:02.321Z,9.93
2022-11-25T08:41:01.920Z,9.94
2022-11-25T08:42:01.909Z,9.94
2022-11-25T08:43:01.895Z,9.94
2022-11-25T08:44:01.882Z,9.94
2022-11-25T08:45:01.875Z,9.93
2022-11-25T08:46:01.956Z,9.93
2022-11-25T08:47:01.930Z,9.94
2022-11-25T08:48:01.829Z,9.94
2022-11-25T08:49:01.816Z,9.97
2022-11-25T08:50:01.808Z,9.96
2022-11-25T08:51:01.814Z,9.96
2022-11-25T08:52:01.780Z,9.97
2022-11-25T08:53:01.763Z,9.97
2022-11-25T08:54:01.754Z,9.96
2022-11-25T08:55:01.735Z,9.97
2022-11-25T08:56:01.726Z,9.96
2022-11-25T08:57:01.709Z,9.97
2022-11-25T08:58:01.697Z,9.97
2022-11-25T08:59:01.687Z,9.99
2022-11-25T09:00:01.671Z,9.99
2022-11-25T09:01:01.668Z,9.97
2022-11-25T09:02:01.740Z,9.96
2022-11-25T09:03:04.213Z,9.99
2022-11-25T09:04:01.619Z,9.96
2022-11-25T09:05:01.604Z,9.99
2022-11-25T09:06:01.592Z,10.00
2022-11-25T09:07:01.603Z,9.97
2022-11-25T09:08:01.603Z,9.97
2022-11-25T09:09:01.553Z,9.97
2022-11-25T09:10:01.539Z,9.99
2022-11-25T09:11:01.664Z,9.97
2022-11-25T09:12:01.515Z,9.97
2022-11-25T09:13:01.498Z,9.96
2022-11-25T09:14:01.607Z,9.99
2022-11-25T09:15:01.473Z,9.99
2022-11-25T09:16:01.546Z,9.99
2022-11-25T09:17:01.445Z,9.97
2022-11-25T09:18:01.432Z,9.97
2022-11-25T09:19:01.417Z,9.99
2022-11-25T09:20:01.408Z,9.97
2022-11-25T09:21:01.390Z,9.99
2022-11-25T09:22:01.382Z,9.99
2022-11-25T09:23:01.390Z,9.99
2022-11-25T09:24:01.352Z,9.99
2022-11-25T09:25:01.337Z,10.00
2022-11-25T09:26:01.330Z,9.99
2022-11-25T09:27:01.311Z,10.00
2022-11-25T09:28:01.300Z,10.00
2022-11-25T09:29:01.282Z,10.00
2022-11-25T09:30:01.271Z,10.00
2022-11-25T09:31:01.354Z,9.99
2022-11-25T09:32:01.350Z,10.00
2022-11-25T09:33:01.233Z,10.00
2022-11-25T09:34:01.219Z,10.00
2022-11-25T09:35:01.209Z,10.00
2022-11-25T09:36:01.192Z,10.00
2022-11-25T09:37:01.203Z,10.01
2022-11-25T09:38:01.166Z,10.01
2022-11-25T09:39:01.173Z,10.01
2022-11-25T09:40:01.144Z,10.03
2022-11-25T09:41:01.124Z,10.01
2022-11-25T09:42:01.112Z,10.01
2022-11-25T09:43:01.095Z,10.03
2022-11-25T09:44:01.085Z,10.01
2022-11-25T09:45:01.074Z,10.03
2022-11-25T09:46:01.113Z,10.01
2022-11-25T09:47:01.085Z,10.01
2022-11-25T09:48:01.037Z,10.01
2022-11-25T09:49:01.016Z,10.01
2022-11-25T09:50:01.015Z,10.03
2022-11-25T09:51:00.994Z,10.03
2022-11-25T09:52:00.980Z,10.01
2022-11-25T09:53:00.963Z,10.03
2022-11-25T09:54:00.950Z,10.04
2022-11-25T09:55:00.963Z,10.03
2022-11-25T09:56:01.738Z,10.03
2022-11-25T09:57:00.911Z,10.03
2022-11-25T09:58:00.902Z,10.04
2022-11-25T09:59:00.884Z,10.04
2022-11-25T10:00:00.876Z,10.04
2022-11-25T10:01:00.859Z,10.03
2022-11-25T10:02:00.935Z,10.06
2022-11-25T10:03:01.052Z,10.03
2022-11-25T10:04:00.824Z,10.03
2022-11-25T10:05:00.806Z,10.03
2022-11-25T10:06:00.848Z,10.04
2022-11-25T10:07:00.828Z,10.03
2022-11-25T10:08:00.768Z,10.03
2022-11-25T10:09:00.751Z,10.03
2022-11-25T10:10:00.740Z,10.03
2022-11-25T10:11:00.753Z,10.04
2022-11-25T10:12:00.717Z,10.04
2022-11-25T10:13:00.700Z,10.03
2022-11-25T10:14:00.698Z,10.04
2022-11-25T10:15:00.673Z,10.04
2022-11-25T10:16:00.746Z,10.03
2022-11-25T10:17:00.645Z,10.03
2022-11-25T10:18:00.635Z,10.03
2022-11-25T10:19:00.618Z,10.03
2022-11-25T10:20:00.609Z,10.03
2022-11-25T10:21:00.592Z,10.04
2022-11-25T10:22:00.581Z,10.04
2022-11-25T10:23:00.565Z,10.04
2022-11-25T10:24:00.554Z,10.03
2022-11-25T10:25:00.540Z,10.04
2022-11-25T10:26:00.531Z,10.04
2022-11-25T10:27:00.539Z,10.04
2022-11-25T10:28:00.504Z,10.04
2022-11-25T10:29:00.486Z,10.03
2022-11-25T10:30:00.480Z,10.04
2022-11-25T10:31:00.524Z,10.03
2022-11-25T10:32:00.451Z,10.03
2022-11-25T10:33:02.559Z,10.03
2022-11-25T10:34:00.424Z,10.03
2022-11-25T10:35:00.411Z,10.04
2022-11-25T10:36:00.396Z,10.03
2022-11-25T10:37:00.380Z,10.04
2022-11-25T10:38:00.368Z,10.06
2022-11-25T10:39:00.353Z,10.04
2022-11-25T10:40:00.342Z,10.04
2022-11-25T10:41:00.351Z,10.06
2022-11-25T10:42:00.315Z,10.06
2022-11-25T10:43:00.323Z,10.06
2022-11-25T10:44:00.290Z,10.07
2022-11-25T10:45:00.275Z,10.06
2022-11-25T10:46:00.267Z,10.06
2022-11-25T10:47:15.870Z,10.04
2022-11-25T10:48:01.279Z,10.04
2022-11-25T10:49:00.223Z,10.04
2022-11-25T10:50:00.218Z,10.06
2022-11-25T10:51:00.197Z,10.07
2022-11-25T10:52:00.184Z,10.07
2022-11-25T10:53:00.171Z,10.07
2022-11-25T10:54:00.160Z,10.06
2022-11-25T10:55:00.143Z,10.06
2022-11-25T10:56:00.132Z,10.07
2022-11-25T10:57:00.116Z,10.06
2022-11-25T10:58:00.108Z,10.07
2022-11-25T10:59:00.123Z,10.06
2022-11-25T11:00:00.096Z,10.07
2022-11-25T11:01:00.076Z,10.07
2022-11-25T11:02:00.158Z,10.06
2022-11-25T11:03:00.112Z,10.07
2022-11-25T11:04:00.024Z,10.07
2022-11-25T11:05:00.015Z,10.07
2022-11-25T11:05:59.998Z,10.09
2022-11-25T11:06:59.985Z,10.09
2022-11-25T11:08:00.065Z,10.10
2022-11-25T11:08:59.958Z,10.07
2022-11-25T11:09:59.944Z,10.07
2022-11-25T11:10:59.930Z,10.07
2022-11-25T11:11:59.917Z,10.07
2022-11-25T11:12:59.927Z,10.09
2022-11-25T11:13:59.892Z,10.07
2022-11-25T11:15:00.012Z,10.07
2022-11-25T11:15:59.908Z,10.07
2022-11-25T11:16:59.849Z,10.07
2022-11-25T11:17:59.839Z,10.07
2022-11-25T11:18:59.823Z,10.07
2022-11-25T11:19:59.813Z,10.07
2022-11-25T11:20:59.797Z,10.09
2022-11-25T11:21:59.787Z,10.07
2022-11-25T11:23:02.976Z,10.09
2022-11-25T11:23:59.762Z,10.10
2022-11-25T11:24:59.746Z,10.09
2022-11-25T11:25:59.733Z,10.09
2022-11-25T11:26:59.718Z,10.09
2022-11-25T11:27:59.707Z,10.09
2022-11-25T11:28:59.692Z,10.07
2022-11-25T11:29:59.681Z,10.09
2022-11-25T11:30:59.711Z,10.09
2022-11-25T11:31:59.654Z,10.06
2022-11-25T11:32:59.638Z,10.09
2022-11-25T11:33:59.630Z,10.07
2022-11-25T11:34:59.613Z,10.09
2022-11-25T11:35:59.601Z,10.09
2022-11-25T11:36:59.586Z,10.07
2022-11-25T11:37:59.573Z,10.07
2022-11-25T11:38:59.559Z,10.07
2022-11-25T11:39:59.548Z,10.09
2022-11-25T11:40:59.532Z,10.10
2022-11-25T11:41:59.522Z,10.10
2022-11-25T11:42:59.506Z,10.10
2022-11-25T11:43:59.495Z,10.09
2022-11-25T11:44:59.480Z,10.09
2022-11-25T11:45:59.469Z,10.09
2022-11-25T11:46:59.584Z,10.09
2022-11-25T11:47:59.441Z,10.10
2022-11-25T11:48:59.426Z,10.07
2022-11-25T11:49:59.416Z,10.09
2022-11-25T11:50:59.400Z,10.12
2022-11-25T11:51:59.389Z,10.12
2022-11-25T11:52:59.373Z,10.10
2022-11-25T11:53:59.366Z,10.12
2022-11-25T11:54:59.346Z,10.12
2022-11-25T11:56:33.492Z,10.10
2022-11-25T11:57:00.380Z,10.12
2022-11-25T11:57:59.458Z,10.14
2022-11-25T11:58:59.296Z,10.14
2022-11-25T11:59:59.281Z,10.14
2022-11-25T12:00:59.267Z,10.10
2022-11-25T12:01:59.309Z,10.12
2022-11-25T12:02:59.400Z,10.12
2022-11-25T12:03:59.227Z,10.12
2022-11-25T12:04:59.213Z,10.12
2022-11-25T12:05:59.201Z,10.15
2022-11-25T12:06:59.186Z,10.14
2022-11-25T12:07:59.345Z,10.14
2022-11-25T12:08:59.163Z,10.15
2022-11-25T12:09:59.147Z,10.15
2022-11-25T12:10:59.133Z,10.14
2022-11-25T12:11:59.121Z,10.15
2022-11-25T12:12:59.107Z,10.15
2022-11-25T12:14:00.973Z,10.14
2022-11-25T12:14:59.079Z,10.15
2022-11-25T12:15:59.128Z,10.14
2022-11-25T12:16:59.052Z,10.15
2022-11-25T12:17:59.042Z,10.15
2022-11-25T12:18:59.054Z,10.14
2022-11-25T12:19:59.017Z,10.15
2022-11-25T12:20:59.001Z,10.15
2022-11-25T12:21:58.988Z,10.15
2022-11-25T12:22:58.977Z,10.15
2022-11-25T12:23:58.961Z,10.15
2022-11-25T12:24:58.946Z,10.15
2022-11-25T12:25:58.935Z,10.15
2022-11-25T12:26:58.921Z,10.15
2022-11-25T12:27:58.909Z,10.15
2022-11-25T12:28:58.894Z,10.15
2022-11-25T12:29:58.891Z,10.17
2022-11-25T12:31:04.586Z,10.15
2022-11-25T12:32:00.032Z,10.18
2022-11-25T12:32:58.844Z,10.17
2022-11-25T12:33:58.830Z,10.17
2022-11-25T12:34:58.842Z,10.18
2022-11-25T12:35:58.806Z,10.19
2022-11-25T12:36:58.791Z,10.18
2022-11-25T12:37:58.781Z,10.19
2022-11-25T12:38:58.766Z,10.19
2022-11-25T12:39:58.750Z,10.19
2022-11-25T12:40:58.734Z,10.19
2022-11-25T12:41:58.728Z,10.18
2022-11-25T12:42:58.716Z,10.21
2022-11-25T12:43:58.701Z,10.19
2022-11-25T12:44:58.682Z,10.21
2022-11-25T12:45:58.800Z,10.18
2022-11-25T12:46:58.656Z,10.19
2022-11-25T12:47:58.643Z,10.17
2022-11-25T12:48:58.629Z,10.18
2022-11-25T12:49:58.616Z,10.17
2022-11-25T12:50:58.626Z,10.18
2022-11-25T12:51:58.592Z,10.19
2022-11-25T12:52:58.577Z,10.18
2022-11-25T12:53:58.562Z,10.17
2022-11-25T12:54:58.551Z,10.18
2022-11-25T12:55:58.535Z,10.18
2022-11-25T12:56:58.524Z,10.18
2022-11-25T12:57:58.513Z,10.19
2022-11-25T12:58:58.557Z,10.19
2022-11-25T13:00:25.120Z,10.18
2022-11-25T13:00:58.541Z,10.19
2022-11-25T13:01:58.644Z,10.21
2022-11-25T13:02:58.467Z,10.21
2022-11-25T13:03:58.430Z,10.19
2022-11-25T13:05:18.447Z,10.19
2022-11-25T13:05:59.451Z,10.19